MST,Max TemperatureF,Mean TemperatureF,Min TemperatureF,Max Dew PointF,MeanDew PointF,Min DewpointF,Max Humidity, Mean Humidity, Min Humidity, Max Sea Level PressureIn, Mean Sea Level PressureIn, Min Sea Level PressureIn, Max VisibilityMiles, Mean VisibilityMiles, Min VisibilityMiles, Max Wind SpeedMPH, Mean Wind SpeedMPH, Max Gust SpeedMPH,PrecipitationIn, CloudCover, Events, WindDirDegrees
2013-2-1,25,19,12,13,10,7,80,68,55,30.29,30.16,30.04,10,8,2,30,14,40,T,6,Snow,321
2013-2-2,36,20,3,6,3,-2,83,54,25,30.46,30.35,30.28,10,10,10,21,7,25,0.00,0,,8
2013-2-3,36,21,5,7,-4,-17,66,41,15,30.28,30.07,29.92,10,10,10,21,8,26,0.00,0,,357
2013-2-4,32,18,3,5,0,-7,79,54,28,30.08,30.04,29.98,10,10,10,25,10,35,0.00,1,,340
2013-2-5,42,24,5,18,11,4,83,58,33,30.14,30.01,29.86,10,10,10,16,5,20,0.00,0,,19
2013-2-6,34,22,10,21,15,7,92,67,41,30.05,29.92,29.78,10,7,0,21,8,28,0.03,5,Fog-Snow,351
2013-2-7,36,16,-4,10,-1,-13,95,54,13,30.23,30.10,29.97,10,10,10,14,3,17,0.00,1,,28
2013-2-8,32,17,2,18,8,-3,74,55,36,30.02,29.81,29.54,10,9,2,24,8,31,T,4,Snow,158
2013-2-9,24,15,6,19,10,1,84,63,41,29.69,29.49,29.35,10,6,0,21,10,30,0.07,7,Fog-Snow,25
2013-2-10,19,10,1,5,1,-3,88,66,43,29.89,29.72,29.56,10,7,1,14,4,17,0.03,7,Snow,15
2013-2-11,16,4,-9,7,2,-13,95,83,70,30.14,29.85,29.76,10,5,1,16,4,21,0.06,7,Snow,17
2013-2-12,21,5,-12,1,-6,-14,83,62,40,30.27,30.15,30.02,10,10,10,18,8,22,0.00,1,,2
2013-2-13,21,11,1,11,5,-2,95,78,61,30.24,30.11,30.01,10,10,7,26,10,33,T,6,Snow,5
2013-2-14,24,17,9,13,10,5,88,69,50,30.19,30.08,30.00,10,6,0,21,8,28,0.04,7,Fog-Snow,327
2013-2-15,18,11,3,10,8,0,92,83,73,30.45,30.20,30.11,10,3,1,18,8,24,0.20,7,Snow,321
2013-2-16,32,18,4,11,4,-1,87,61,35,30.42,30.26,30.04,10,10,6,28,11,36,0.00,0,,342
2013-2-17,35,20,4,12,1,-12,80,48,16,30.02,29.73,29.55,10,8,1,22,9,31,0.01,3,Snow,300
2013-2-18,18,6,-7,9,-2,-17,86,63,40,30.18,29.90,29.62,10,9,2,24,10,31,0.01,4,Snow,343
2013-2-19,30,10,-10,0,-10,-21,56,35,14,30.17,29.95,29.68,10,10,10,17,6,22,0.00,0,,130
2013-2-20,26,14,2,19,12,-4,92,67,41,29.68,29.49,29.38,10,5,0,14,4,17,0.14,6,Fog-Snow,189
2013-2-21,23,11,-1,14,11,-5,88,78,67,29.83,29.57,29.40,10,4,1,18,6,23,0.08,7,Snow,342
2013-2-22,20,7,-7,7,1,-9,88,67,45,30.02,29.85,29.75,10,6,2,17,6,21,T,6,Snow,357
2013-2-23,31,14,-4,15,3,-8,88,68,47,29.95,29.75,29.51,10,10,10,21,6,29,T,5,,9
2013-2-24,19,9,-1,10,4,-4,88,70,51,30.04,29.69,29.48,10,4,0,20,8,24,0.24,7,Fog-Snow,354
2013-2-25,26,9,-8,4,-3,-12,86,59,31,30.18,30.01,29.79,10,10,10,17,9,23,0.00,0,,1
2013-2-26,17,8,-1,5,0,-5,87,69,51,30.12,29.83,29.68,10,9,2,23,10,28,T,6,Snow,12
2013-2-27,18,6,-7,-1,-6,-11,86,60,33,30.35,30.21,30.02,10,10,10,18,8,30,0.00,3,,16
2013-2-28,21,6,-10,11,4,-14,92,69,45,30.42,30.30,30.20,10,5,1,22,10,28,0.04,6,Snow,334